Time;durP1;ratioP1;P1;durP2;ratioP2;P2;SDS_P1;SDS_P2;PMS_P1;PMS_P2;Temp;Humidity;BMP_temperature;BMP_pressure;BME280_temperature;BME280_humidity;BME280_pressure;Samples;Min_cycle;Max_cycle;Signal;HPM_P1;HPM_P2
2021/03/29 00:01:31;;;;;;;40.27;22.00;;;;;;;;;;5054233;28;20176;-87
2021/03/29 00:03:56;;;;;;;41.93;23.00;;;;;;;;;;5053568;28;20255;-87
2021/03/29 00:06:22;;;;;;;48.83;25.63;;;;;;;;;;5053462;28;20164;-87
2021/03/29 00:08:48;;;;;;;44.70;24.60;;;;;;;;;;5054103;28;20168;-87
2021/03/29 00:11:14;;;;;;;47.33;26.57;;;;;;;;;;5053992;28;20176;-87
2021/03/29 00:13:40;;;;;;;48.27;26.03;;;;;;;;;;5053453;28;20172;-87
2021/03/29 00:16:06;;;;;;;43.50;24.80;;;;;;;;;;5053979;28;20172;-87
2021/03/29 00:18:31;;;;;;;43.10;23.83;;;;;;;;;;5063591;28;20194;-87
2021/03/29 00:21:00;;;;;;;30.60;18.83;;;;;;;;;;5073970;28;20167;-86
2021/03/29 00:23:25;;;;;;;31.93;19.57;;;;;;;;;;5073066;28;20182;-87
2021/03/29 00:25:51;;;;;;;37.00;20.57;;;;;;;;;;5073923;28;20225;-87
2021/03/29 00:28:17;;;;;;;34.60;18.73;;;;;;;;;;5073240;28;20206;-87
2021/03/29 00:30:44;;;;;;;31.50;19.03;;;;;;;;;;5073368;28;20618;-87
2021/03/29 00:33:10;;;;;;;28.77;18.47;;;;;;;;;;5073240;28;20584;-87
2021/03/29 00:35:37;;;;;;;29.97;17.73;;;;;;;;;;5053979;28;20267;-87
2021/03/29 00:38:03;;;;;;;35.23;18.37;;;;;;;;;;5053754;28;20198;-87
2021/03/29 00:40:29;;;;;;;31.03;17.53;;;;;;;;;;5053479;28;20619;-87
2021/03/29 00:42:56;;;;;;;30.37;17.70;;;;;;;;;;5053882;28;20255;-87
2021/03/29 00:45:22;;;;;;;27.40;17.47;;;;;;;;;;5053439;28;20203;-86
2021/03/29 00:47:48;;;;;;;27.97;17.60;;;;;;;;;;5053567;28;20596;-87
2021/03/29 00:50:20;;;;;;;26.47;16.37;;;;;;;;;;5053635;28;20168;-86
2021/03/29 00:52:46;;;;;;;25.20;16.40;;;;;;;;;;5053952;28;20164;-86
2021/03/29 00:55:12;;;;;;;25.20;16.13;;;;;;;;;;5056508;28;20492;-87
2021/03/29 00:57:37;;;;;;;26.70;17.30;;;;;;;;;;5056778;28;20251;-87
2021/03/29 01:00:11;;;;;;;23.67;16.27;;;;;;;;;;5057030;28;20244;-87
2021/03/29 01:02:37;;;;;;;24.50;16.03;;;;;;;;;;5057639;28;20160;-87
2021/03/29 01:05:06;;;;;;;22.93;15.57;;;;;;;;;;5056719;28;20168;-87
2021/03/29 01:07:31;;;;;;;21.87;15.43;;;;;;;;;;5057103;28;20227;-87
2021/03/29 01:09:56;;;;;;;27.80;15.90;;;;;;;;;;5056924;28;20171;-87
2021/03/29 01:12:22;;;;;;;24.93;15.33;;;;;;;;;;5056659;28;20170;-87
2021/03/29 01:14:48;;;;;;;26.67;16.27;;;;;;;;;;5057364;28;20171;-86
2021/03/29 01:17:34;;;;;;;23.37;14.93;;;;;;;;;;5056293;28;20172;-87
2021/03/29 01:20:02;;;;;;;23.60;16.00;;;;;;;;;;5056793;28;20596;-86
2021/03/29 01:22:31;;;;;;;24.40;15.57;;;;;;;;;;5056335;28;20184;-87
2021/03/29 01:25:14;;;;;;;26.70;14.67;;;;;;;;;;5056622;28;20210;-87
2021/03/29 01:27:57;;;;;;;27.20;16.87;;;;;;;;;;5056213;28;20199;-87
2021/03/29 01:30:23;;;;;;;26.03;17.03;;;;;;;;;;5056776;28;20168;-87
2021/03/29 01:32:49;;;;;;;27.87;16.13;;;;;;;;;;5056052;28;20175;-87
2021/03/29 01:35:20;;;;;;;26.50;16.90;;;;;;;;;;5056435;28;20622;-87
2021/03/29 01:37:46;;;;;;;25.37;16.67;;;;;;;;;;5056152;28;20168;-87
2021/03/29 01:40:13;;;;;;;24.37;15.23;;;;;;;;;;5056398;28;20175;-87
2021/03/29 01:42:38;;;;;;;23.13;14.90;;;;;;;;;;5055827;28;20171;-87
2021/03/29 01:45:04;;;;;;;22.90;14.70;;;;;;;;;;5056118;28;20168;-87
2021/03/29 01:47:30;;;;;;;23.30;14.83;;;;;;;;;;5056432;28;20204;-87
2021/03/29 01:49:56;;;;;;;21.27;14.33;;;;;;;;;;5055936;28;20179;-87
2021/03/29 01:52:22;;;;;;;18.97;13.30;;;;;;;;;;5056070;28;20172;-87
2021/03/29 01:54:47;;;;;;;20.43;12.77;;;;;;;;;;5056070;28;20178;-87
2021/03/29 01:57:12;;;;;;;18.47;13.03;;;;;;;;;;5055718;28;20669;-87
2021/03/29 01:59:38;;;;;;;20.70;13.53;;;;;;;;;;5056156;28;20567;-87
2021/03/29 02:02:04;;;;;;;19.50;13.23;;;;;;;;;;5056338;28;20176;-87
2021/03/29 02:04:30;;;;;;;19.50;12.53;;;;;;;;;;5056598;28;20183;-87
2021/03/29 02:06:56;;;;;;;18.23;13.07;;;;;;;;;;5055644;28;20660;-87
2021/03/29 02:09:23;;;;;;;21.13;13.13;;;;;;;;;;5055774;28;20181;-86
2021/03/29 02:11:48;;;;;;;20.50;13.20;;;;;;;;;;5055704;28;20175;-86
2021/03/29 02:14:15;;;;;;;22.63;12.37;;;;;;;;;;5055875;28;20176;-86
2021/03/29 02:16:40;;;;;;;22.10;12.93;;;;;;;;;;5055432;28;20172;-86
2021/03/29 02:19:07;;;;;;;21.33;13.50;;;;;;;;;;5055688;28;20175;-86
2021/03/29 02:21:34;;;;;;;17.20;11.97;;;;;;;;;;5054560;28;20194;-86
2021/03/29 02:24:01;;;;;;;18.03;12.07;;;;;;;;;;5055571;28;20184;-86
2021/03/29 02:26:27;;;;;;;22.13;13.17;;;;;;;;;;5055150;28;20168;-86
2021/03/29 02:28:53;;;;;;;20.27;12.00;;;;;;;;;;5056031;28;20212;-86
2021/03/29 02:31:19;;;;;;;18.50;12.17;;;;;;;;;;5055690;28;20229;-86
2021/03/29 02:33:47;;;;;;;19.47;12.97;;;;;;;;;;5055283;28;20187;-86
2021/03/29 02:36:13;;;;;;;18.60;11.67;;;;;;;;;;5054992;28;20530;-86
2021/03/29 02:38:38;;;;;;;18.23;12.67;;;;;;;;;;5054955;28;20175;-86
2021/03/29 02:41:04;;;;;;;23.10;13.27;;;;;;;;;;5054753;28;20179;-86
2021/03/29 02:43:29;;;;;;;22.60;12.70;;;;;;;;;;5055026;28;20670;-86
2021/03/29 02:45:56;;;;;;;21.03;12.67;;;;;;;;;;5054774;28;20178;-86
2021/03/29 02:48:23;;;;;;;22.97;12.57;;;;;;;;;;5054539;28;20544;-86
2021/03/29 02:50:49;;;;;;;22.13;12.70;;;;;;;;;;5054639;28;20168;-86
2021/03/29 02:53:16;;;;;;;22.17;13.43;;;;;;;;;;5053688;28;20212;-86
2021/03/29 02:55:43;;;;;;;22.43;12.37;;;;;;;;;;5055279;28;20218;-86
2021/03/29 02:58:10;;;;;;;20.33;12.13;;;;;;;;;;5054836;28;20618;-86
2021/03/29 03:00:35;;;;;;;16.73;11.27;;;;;;;;;;5054694;28;20168;-86
2021/03/29 03:03:01;;;;;;;16.87;11.63;;;;;;;;;;5054820;28;20221;-86
2021/03/29 03:05:28;;;;;;;20.93;11.93;;;;;;;;;;5054808;28;20183;-86
2021/03/29 03:07:54;;;;;;;19.90;12.30;;;;;;;;;;5054672;28;20235;-87
2021/03/29 03:10:20;;;;;;;22.37;12.70;;;;;;;;;;5054215;28;20254;-86
2021/03/29 03:12:46;;;;;;;20.17;11.97;;;;;;;;;;5054522;28;20175;-86
2021/03/29 03:15:14;;;;;;;18.60;12.07;;;;;;;;;;5054591;28;20233;-86
2021/03/29 03:17:39;;;;;;;19.63;12.40;;;;;;;;;;5053900;28;20171;-86
2021/03/29 03:20:09;;;;;;;17.60;11.63;;;;;;;;;;5054181;28;20275;-86
2021/03/29 03:22:34;;;;;;;18.40;11.77;;;;;;;;;;5054878;28;20175;-86
2021/03/29 03:25:00;;;;;;;20.73;11.97;;;;;;;;;;5055012;28;20175;-86
2021/03/29 03:27:25;;;;;;;17.40;11.93;;;;;;;;;;5054555;28;20214;-86
2021/03/29 03:29:50;;;;;;;23.13;12.70;;;;;;;;;;5054358;28;20175;-86
2021/03/29 03:32:16;;;;;;;18.73;11.33;;;;;;;;;;5053075;28;20219;-86
2021/03/29 03:34:43;;;;;;;17.23;11.43;;;;;;;;;;5053950;28;20580;-86
2021/03/29 03:37:10;;;;;;;18.87;11.50;;;;;;;;;;5053713;28;20642;-86
2021/03/29 03:39:36;;;;;;;14.67;11.33;;;;;;;;;;5054568;28;20325;-87
2021/03/29 03:42:02;;;;;;;15.20;11.37;;;;;;;;;;5054163;28;20570;-86
2021/03/29 03:44:29;;;;;;;19.03;12.10;;;;;;;;;;5054148;28;20172;-87
2021/03/29 03:46:54;;;;;;;20.90;13.17;;;;;;;;;;5053992;28;20202;-87
2021/03/29 03:49:21;;;;;;;22.67;14.27;;;;;;;;;;5053765;28;20176;-87
2021/03/29 03:51:47;;;;;;;22.33;15.07;;;;;;;;;;5053584;28;20180;-86
2021/03/29 03:54:12;;;;;;;29.17;17.13;;;;;;;;;;5053640;28;20196;-86
2021/03/29 03:56:38;;;;;;;28.40;17.07;;;;;;;;;;5054418;28;20223;-86
2021/03/29 03:59:04;;;;;;;27.47;16.90;;;;;;;;;;5053924;28;20175;-86
2021/03/29 04:01:48;;;;;;;30.10;17.83;;;;;;;;;;5054341;28;20176;-86
2021/03/29 04:04:13;;;;;;;31.37;17.87;;;;;;;;;;5054131;28;20233;-86
2021/03/29 04:06:39;;;;;;;26.17;16.70;;;;;;;;;;5053901;28;20219;-86
2021/03/29 04:09:04;;;;;;;32.83;18.30;;;;;;;;;;5053853;28;20168;-86
2021/03/29 04:11:30;;;;;;;25.67;15.30;;;;;;;;;;5052393;28;20176;-86
2021/03/29 04:13:55;;;;;;;29.53;16.73;;;;;;;;;;5053774;28;20267;-86
2021/03/29 04:16:20;;;;;;;29.80;16.57;;;;;;;;;;5053772;28;20565;-86
2021/03/29 04:18:46;;;;;;;26.10;16.03;;;;;;;;;;5053497;28;20619;-86
2021/03/29 04:21:11;;;;;;;26.73;16.10;;;;;;;;;;5053970;28;20176;-87
2021/03/29 04:23:36;;;;;;;26.63;15.33;;;;;;;;;;5053669;28;20179;-86
2021/03/29 04:26:02;;;;;;;27.20;16.10;;;;;;;;;;5053471;28;20170;-86
2021/03/29 04:28:27;;;;;;;27.57;15.07;;;;;;;;;;5053998;28;20196;-86
2021/03/29 04:30:53;;;;;;;21.73;13.07;;;;;;;;;;5057662;28;20168;-86
2021/03/29 04:33:19;;;;;;;26.37;13.57;;;;;;;;;;5057873;28;20168;-86
2021/03/29 04:35:45;;;;;;;24.67;13.60;;;;;;;;;;5057292;28;20213;-87
2021/03/29 04:38:10;;;;;;;20.77;13.83;;;;;;;;;;5058073;28;20191;-87
2021/03/29 04:40:36;;;;;;;30.57;20.27;;;;;;;;;;5057500;28;20171;-87
2021/03/29 04:43:01;;;;;;;44.17;26.40;;;;;;;;;;5058012;28;20183;-87
2021/03/29 04:45:26;;;;;;;37.23;24.53;;;;;;;;;;5057101;28;20168;-87
2021/03/29 04:47:52;;;;;;;37.57;24.00;;;;;;;;;;5056997;28;20199;-87
2021/03/29 04:50:18;;;;;;;45.00;28.87;;;;;;;;;;5057261;28;20168;-87
2021/03/29 04:52:43;;;;;;;40.07;25.33;;;;;;;;;;5056801;28;20171;-88
2021/03/29 04:55:10;;;;;;;40.10;24.80;;;;;;;;;;5056919;28;20176;-87
2021/03/29 04:57:35;;;;;;;36.27;23.87;;;;;;;;;;5056905;28;20295;-88
2021/03/29 05:00:01;;;;;;;34.70;19.97;;;;;;;;;;5056918;28;20246;-87
2021/03/29 05:02:26;;;;;;;28.13;17.40;;;;;;;;;;5056594;28;20194;-87
2021/03/29 05:04:51;;;;;;;29.23;18.47;;;;;;;;;;5056865;28;20645;-88
2021/03/29 05:07:17;;;;;;;32.43;18.40;;;;;;;;;;5056458;28;20227;-87
2021/03/29 05:09:42;;;;;;;26.03;18.27;;;;;;;;;;5057062;28;20507;-88
2021/03/29 05:12:16;;;;;;;28.83;18.00;;;;;;;;;;5057231;28;20251;-87
2021/03/29 05:14:41;;;;;;;26.53;17.97;;;;;;;;;;5057173;28;20153;-87
2021/03/29 05:17:07;;;;;;;30.03;20.50;;;;;;;;;;5056368;28;20175;-88
2021/03/29 05:19:33;;;;;;;52.47;40.93;;;;;;;;;;5056610;28;20721;-88
2021/03/29 05:21:59;;;;;;;38.73;28.77;;;;;;;;;;5056458;28;20176;-87
2021/03/29 05:24:24;;;;;;;40.67;27.70;;;;;;;;;;5056217;28;20171;-88
2021/03/29 05:26:49;;;;;;;40.37;26.60;;;;;;;;;;5056468;28;20668;-87
2021/03/29 05:29:15;;;;;;;44.33;27.47;;;;;;;;;;5056283;28;20175;-87
2021/03/29 05:31:40;;;;;;;54.07;31.30;;;;;;;;;;5056089;28;20536;-87
2021/03/29 05:34:07;;;;;;;62.47;33.80;;;;;;;;;;5055218;28;20229;-87
2021/03/29 05:36:32;;;;;;;86.27;42.73;;;;;;;;;;5056037;28;20180;-87
2021/03/29 05:38:58;;;;;;;61.97;32.40;;;;;;;;;;5056186;28;20568;-87
2021/03/29 05:41:23;;;;;;;28.40;17.20;;;;;;;;;;5056738;28;20266;-88
2021/03/29 05:43:48;;;;;;;22.80;15.00;;;;;;;;;;5056653;28;20243;-87
2021/03/29 05:46:14;;;;;;;20.13;13.80;;;;;;;;;;5056103;28;20194;-87
2021/03/29 05:48:39;;;;;;;23.27;15.30;;;;;;;;;;5055798;28;20249;-87
2021/03/29 05:51:07;;;;;;;28.17;17.37;;;;;;;;;;5056304;28;20543;-87
2021/03/29 05:53:32;;;;;;;32.10;19.40;;;;;;;;;;5056033;28;20626;-87
2021/03/29 05:56:01;;;;;;;31.07;19.70;;;;;;;;;;5055645;28;20194;-87
2021/03/29 06:00:53;;;;;;;25.97;17.37;;;;;;;;;;5055793;28;20187;-87
2021/03/29 06:03:22;;;;;;;28.63;18.77;;;;;;;;;;5056027;28;20226;-86
2021/03/29 06:05:48;;;;;;;30.40;17.17;;;;;;;;;;5056012;28;20176;-86
2021/03/29 06:08:14;;;;;;;36.57;21.67;;;;;;;;;;5055528;28;20284;-86
2021/03/29 06:10:40;;;;;;;32.37;18.97;;;;;;;;;;5056051;28;20199;-86
2021/03/29 06:13:16;;;;;;;29.13;18.43;;;;;;;;;;5055647;28;20207;-86
2021/03/29 06:15:41;;;;;;;35.43;21.20;;;;;;;;;;5056203;28;20172;-87
2021/03/29 06:18:14;;;;;;;34.63;20.10;;;;;;;;;;5055696;28;20174;-86
2021/03/29 06:20:58;;;;;;;26.70;17.13;;;;;;;;;;5056192;28;20182;-86
2021/03/29 06:23:23;;;;;;;27.93;17.70;;;;;;;;;;5055818;28;20171;-86
2021/03/29 06:25:48;;;;;;;34.87;20.90;;;;;;;;;;5055264;28;20175;-86
2021/03/29 06:28:25;;;;;;;25.93;17.50;;;;;;;;;;5055092;28;20642;-87
2021/03/29 06:30:50;;;;;;;30.63;18.80;;;;;;;;;;5055340;28;20172;-87
2021/03/29 06:33:18;;;;;;;28.20;18.17;;;;;;;;;;5055014;28;20167;-87
2021/03/29 06:35:45;;;;;;;28.27;18.83;;;;;;;;;;5055402;28;20168;-87
2021/03/29 06:38:15;;;;;;;26.07;18.80;;;;;;;;;;5055136;28;20172;-86
2021/03/29 06:40:41;;;;;;;31.83;21.73;;;;;;;;;;5055298;28;20168;-87
2021/03/29 06:43:25;;;;;;;29.10;19.43;;;;;;;;;;5055347;28;20180;-86
2021/03/29 06:45:52;;;;;;;28.30;18.20;;;;;;;;;;5055215;28;20167;-87
2021/03/29 06:48:28;;;;;;;28.97;19.10;;;;;;;;;;5054649;28;20290;-88
2021/03/29 06:51:07;;;;;;;27.50;19.00;;;;;;;;;;5054079;28;20243;-88
2021/03/29 06:53:33;;;;;;;27.97;17.73;;;;;;;;;;5054795;28;20182;-86
2021/03/29 06:56:17;;;;;;;26.53;16.13;;;;;;;;;;5055582;28;20188;-87
2021/03/29 06:58:42;;;;;;;28.00;16.20;;;;;;;;;;5055236;28;20229;-87
2021/03/29 07:01:14;;;;;;;25.37;15.93;;;;;;;;;;5054817;28;20259;-88
2021/03/29 07:03:40;;;;;;;29.10;18.23;;;;;;;;;;5054591;28;20156;-88
2021/03/29 07:06:05;;;;;;;28.37;19.73;;;;;;;;;;5052952;28;20176;-87
2021/03/29 07:08:30;;;;;;;31.73;21.67;;;;;;;;;;5034477;28;20235;-86
2021/03/29 07:10:56;;;;;;;36.27;23.17;;;;;;;;;;5034850;28;20176;-86
2021/03/29 07:13:22;;;;;;;23.63;16.60;;;;;;;;;;5035220;28;20230;-87
2021/03/29 07:15:48;;;;;;;24.53;15.67;;;;;;;;;;5034668;28;20169;-86
2021/03/29 07:18:14;;;;;;;25.63;18.97;;;;;;;;;;5047720;28;20187;-86
2021/03/29 07:20:40;;;;;;;22.53;14.30;;;;;;;;;;5054464;28;20542;-86
2021/03/29 07:23:05;;;;;;;27.60;14.87;;;;;;;;;;5054415;28;20176;-86
2021/03/29 07:25:32;;;;;;;24.47;14.27;;;;;;;;;;5054534;28;20203;-87
2021/03/29 07:27:59;;;;;;;26.03;16.37;;;;;;;;;;5052633;28;20211;-86
2021/03/29 07:30:43;;;;;;;20.60;14.90;;;;;;;;;;5040555;28;20226;-86
2021/03/29 07:33:10;;;;;;;18.60;13.17;;;;;;;;;;5035699;28;20172;-83
2021/03/29 07:35:55;;;;;;;19.30;13.17;;;;;;;;;;5034277;28;20184;-84
2021/03/29 07:38:21;;;;;;;19.53;12.87;;;;;;;;;;5042159;28;20176;-84
2021/03/29 07:40:48;;;;;;;16.53;11.53;;;;;;;;;;5051848;28;20207;-87
2021/03/29 07:43:15;;;;;;;17.50;11.90;;;;;;;;;;5051017;28;20214;-86
2021/03/29 07:45:45;;;;;;;16.40;12.10;;;;;;;;;;5053510;28;20183;-86
2021/03/29 07:48:14;;;;;;;20.53;13.50;;;;;;;;;;5052971;28;20199;-86
2021/03/29 07:50:39;;;;;;;24.40;14.83;;;;;;;;;;5053108;28;20184;-86
2021/03/29 07:53:15;;;;;;;20.47;14.13;;;;;;;;;;5053294;28;20164;-86
2021/03/29 07:55:51;;;;;;;21.17;16.00;;;;;;;;;;5052051;28;20244;-84
2021/03/29 07:58:22;;;;;;;15.27;11.03;;;;;;;;;;5053484;28;20262;-84
2021/03/29 08:00:54;;;;;;;15.70;11.13;;;;;;;;;;5053808;28;20537;-84
2021/03/29 08:03:22;;;;;;;15.60;10.70;;;;;;;;;;5053119;28;20171;-84
2021/03/29 08:05:48;;;;;;;12.53;10.03;;;;;;;;;;5053562;28;20172;-84
2021/03/29 08:08:23;;;;;;;15.23;10.23;;;;;;;;;;5051042;28;20231;-84
2021/03/29 08:10:54;;;;;;;12.17;8.73;;;;;;;;;;5053229;28;20235;-84
2021/03/29 08:13:38;;;;;;;11.90;8.20;;;;;;;;;;5049733;28;20689;-84
2021/03/29 08:16:05;;;;;;;10.70;8.07;;;;;;;;;;5053169;28;20168;-84
2021/03/29 08:18:50;;;;;;;8.73;7.20;;;;;;;;;;5051508;28;20179;-85
2021/03/29 08:21:34;;;;;;;9.07;7.30;;;;;;;;;;5039817;28;20195;-85
2021/03/29 08:24:02;;;;;;;10.03;7.50;;;;;;;;;;5037425;28;20658;-85
2021/03/29 08:26:37;;;;;;;10.20;7.53;;;;;;;;;;5039930;28;20164;-85
2021/03/29 08:29:13;;;;;;;10.13;7.40;;;;;;;;;;5038045;28;20723;-87
2021/03/29 08:31:57;;;;;;;13.30;9.00;;;;;;;;;;5038064;28;20184;-85
2021/03/29 08:34:23;;;;;;;12.97;9.23;;;;;;;;;;5033494;28;20176;-85
2021/03/29 08:36:49;;;;;;;12.70;8.67;;;;;;;;;;5033304;28;20255;-85
2021/03/29 08:39:15;;;;;;;11.33;7.83;;;;;;;;;;5033274;28;20537;-85
2021/03/29 08:41:40;;;;;;;13.03;8.80;;;;;;;;;;5033257;28;20176;-85
2021/03/29 08:44:06;;;;;;;14.80;9.87;;;;;;;;;;5033129;28;20169;-84
2021/03/29 08:46:32;;;;;;;14.03;9.40;;;;;;;;;;5033431;28;20172;-87
2021/03/29 08:48:57;;;;;;;13.63;9.40;;;;;;;;;;5033312;28;20197;-86
2021/03/29 08:51:23;;;;;;;13.20;8.40;;;;;;;;;;5033362;28;20528;-85
2021/03/29 08:54:07;;;;;;;12.43;9.63;;;;;;;;;;5033718;28;20168;-83
2021/03/29 08:56:39;;;;;;;12.87;10.13;;;;;;;;;;5033156;28;20196;-83
2021/03/29 08:59:04;;;;;;;14.40;10.20;;;;;;;;;;5051035;28;20598;-82
2021/03/29 09:01:30;;;;;;;15.07;9.80;;;;;;;;;;5053000;28;20180;-83
2021/03/29 09:03:59;;;;;;;12.03;9.17;;;;;;;;;;5053187;28;20509;-83
2021/03/29 09:06:25;;;;;;;12.17;9.40;;;;;;;;;;5052863;28;20249;-83
2021/03/29 09:08:50;;;;;;;12.53;8.87;;;;;;;;;;5052729;28;20280;-82
2021/03/29 09:11:16;;;;;;;13.83;9.80;;;;;;;;;;5052701;28;20627;-82
2021/03/29 09:13:41;;;;;;;16.97;11.00;;;;;;;;;;5052607;28;20315;-82
2021/03/29 09:16:07;;;;;;;12.30;9.23;;;;;;;;;;5055508;28;20199;-82
2021/03/29 09:18:32;;;;;;;12.13;9.00;;;;;;;;;;5056165;28;20622;-82
2021/03/29 09:20:57;;;;;;;12.57;9.00;;;;;;;;;;5056458;28;20225;-82
2021/03/29 09:23:32;;;;;;;12.70;8.57;;;;;;;;;;5056645;28;20517;-83
2021/03/29 09:26:02;;;;;;;11.33;8.77;;;;;;;;;;5056794;28;20178;-83
2021/03/29 09:30:58;;;;;;;14.30;9.57;;;;;;;;;;5056127;28;20642;-83
2021/03/29 09:33:23;;;;;;;11.40;9.40;;;;;;;;;;5060395;28;20171;-83
2021/03/29 09:35:49;;;;;;;16.87;10.43;;;;;;;;;;5056189;28;20182;-82
2021/03/29 09:38:15;;;;;;;16.50;10.70;;;;;;;;;;5070654;28;20176;-82
2021/03/29 09:40:41;;;;;;;12.27;9.60;;;;;;;;;;5058059;28;20226;-83
2021/03/29 09:43:06;;;;;;;14.93;10.60;;;;;;;;;;5055885;28;20230;-83
2021/03/29 09:45:33;;;;;;;12.27;9.40;;;;;;;;;;5056072;28;20233;-82
2021/03/29 09:48:03;;;;;;;14.23;9.63;;;;;;;;;;5055814;28;20199;-82
2021/03/29 09:50:38;;;;;;;14.00;9.67;;;;;;;;;;5055771;28;20626;-83
2021/03/29 09:53:17;;;;;;;11.80;7.93;;;;;;;;;;5055687;28;20171;-83
2021/03/29 09:55:42;;;;;;;10.17;8.03;;;;;;;;;;5055843;28;20180;-83
2021/03/29 09:58:19;;;;;;;10.60;7.73;;;;;;;;;;5054557;28;20192;-83
2021/03/29 10:00:44;;;;;;;9.13;7.60;;;;;;;;;;5056169;28;20622;-83
2021/03/29 10:03:14;;;;;;;10.70;7.67;;;;;;;;;;5055778;28;20168;-83
2021/03/29 10:05:40;;;;;;;11.20;8.00;;;;;;;;;;5055425;28;20171;-82
2021/03/29 10:08:06;;;;;;;10.87;8.00;;;;;;;;;;5055860;28;20231;-83
2021/03/29 10:10:31;;;;;;;9.67;7.07;;;;;;;;;;5055477;28;20179;-83
2021/03/29 10:13:08;;;;;;;11.07;7.67;;;;;;;;;;5048708;28;20650;-83
2021/03/29 10:15:35;;;;;;;10.70;6.80;;;;;;;;;;5045494;28;20187;-83
2021/03/29 10:18:07;;;;;;;11.97;8.03;;;;;;;;;;5046120;28;20230;-83
2021/03/29 10:20:36;;;;;;;9.83;8.07;;;;;;;;;;5050514;28;20194;-84
2021/03/29 10:23:20;;;;;;;10.80;8.07;;;;;;;;;;5045002;28;20750;-84
2021/03/29 10:26:05;;;;;;;11.20;8.70;;;;;;;;;;5047118;28;20271;-83
2021/03/29 10:28:30;;;;;;;11.97;7.97;;;;;;;;;;5045476;28;20661;-84
2021/03/29 10:30:56;;;;;;;11.03;7.43;;;;;;;;;;5044192;28;20211;-84
2021/03/29 10:33:21;;;;;;;13.93;8.33;;;;;;;;;;5044841;28;20286;-83
2021/03/29 10:35:46;;;;;;;12.90;7.77;;;;;;;;;;5042814;28;20229;-84
2021/03/29 10:38:12;;;;;;;15.47;9.30;;;;;;;;;;5035292;28;20169;-82
2021/03/29 10:40:37;;;;;;;16.00;9.03;;;;;;;;;;5035801;28;20172;-83
2021/03/29 10:43:02;;;;;;;11.87;7.87;;;;;;;;;;5035249;28;20585;-83
2021/03/29 10:45:28;;;;;;;11.30;7.93;;;;;;;;;;5038746;28;20562;-82
2021/03/29 10:47:53;;;;;;;9.53;7.37;;;;;;;;;;5053463;28;20220;-83
2021/03/29 10:50:21;;;;;;;10.63;7.43;;;;;;;;;;5054469;28;20207;-83
2021/03/29 10:52:46;;;;;;;10.33;7.97;;;;;;;;;;5054674;28;20179;-83
2021/03/29 10:55:13;;;;;;;9.70;7.77;;;;;;;;;;5055092;28;20245;-83
2021/03/29 10:57:38;;;;;;;9.20;7.60;;;;;;;;;;5054194;28;20224;-82
2021/03/29 11:00:05;;;;;;;11.20;8.33;;;;;;;;;;5054429;28;20164;-82
2021/03/29 11:02:30;;;;;;;13.47;8.50;;;;;;;;;;5055018;28;20250;-82
2021/03/29 11:05:14;;;;;;;13.50;8.90;;;;;;;;;;5054305;28;20686;-82
2021/03/29 11:07:40;;;;;;;10.40;8.13;;;;;;;;;;5054011;28;20235;-82
2021/03/29 11:10:05;;;;;;;11.33;8.30;;;;;;;;;;5054008;28;20184;-82
2021/03/29 11:12:31;;;;;;;11.87;8.63;;;;;;;;;;5053564;28;20168;-82
2021/03/29 11:14:56;;;;;;;10.70;7.57;;;;;;;;;;5053601;28;20188;-83
2021/03/29 11:17:25;;;;;;;11.77;8.20;;;;;;;;;;5053922;28;20258;-82
2021/03/29 11:19:51;;;;;;;9.63;7.53;;;;;;;;;;5053698;28;20167;-83
2021/03/29 11:22:16;;;;;;;11.90;8.40;;;;;;;;;;5054398;28;20178;-82
2021/03/29 11:24:42;;;;;;;11.00;8.10;;;;;;;;;;5054049;28;20176;-82
2021/03/29 11:27:07;;;;;;;12.33;7.97;;;;;;;;;;5054341;28;20172;-83
2021/03/29 11:29:32;;;;;;;12.03;7.97;;;;;;;;;;5054099;28;20174;-83
2021/03/29 11:31:58;;;;;;;9.87;7.27;;;;;;;;;;5054335;28;20654;-83
2021/03/29 11:34:23;;;;;;;11.00;7.03;;;;;;;;;;5053634;28;20250;-83
2021/03/29 11:36:48;;;;;;;9.67;7.33;;;;;;;;;;5054213;28;20168;-84
2021/03/29 11:39:14;;;;;;;8.60;6.77;;;;;;;;;;5053720;28;20230;-83
2021/03/29 11:41:39;;;;;;;10.03;6.97;;;;;;;;;;5053618;28;20175;-83
2021/03/29 11:44:05;;;;;;;11.07;7.23;;;;;;;;;;5051852;28;20175;-83
2021/03/29 11:46:30;;;;;;;10.47;7.20;;;;;;;;;;5050499;28;20634;-83
2021/03/29 11:48:56;;;;;;;12.97;8.43;;;;;;;;;;5050269;28;20207;-82
2021/03/29 11:51:21;;;;;;;9.27;6.60;;;;;;;;;;5051419;28;20245;-82
2021/03/29 11:53:47;;;;;;;11.07;7.00;;;;;;;;;;5049937;28;20180;-82
2021/03/29 11:56:12;;;;;;;11.17;7.57;;;;;;;;;;5051177;28;20191;-83
2021/03/29 11:58:37;;;;;;;12.40;7.67;;;;;;;;;;5050480;28;20224;-83
2021/03/29 12:01:19;;;;;;;12.37;8.20;;;;;;;;;;5052050;28;20172;-82
2021/03/29 12:04:11;;;;;;;10.93;7.90;;;;;;;;;;5051721;28;20191;-83
2021/03/29 12:07:17;;;;;;;10.93;7.60;;;;;;;;;;5051111;28;20191;-82
2021/03/29 12:09:38;;;;;;;12.10;7.47;;;;;;;;;;5043387;28;20188;-83
2021/03/29 12:12:07;;;;;;;12.93;8.10;;;;;;;;;;5051372;28;20573;-82
2021/03/29 12:14:35;;;;;;;14.00;9.23;;;;;;;;;;5051574;28;20175;-82
2021/03/29 12:17:02;;;;;;;15.60;9.23;;;;;;;;;;5052204;28;20175;-83
2021/03/29 12:19:28;;;;;;;13.60;8.27;;;;;;;;;;5053374;28;20494;-82
2021/03/29 12:21:55;;;;;;;12.43;8.30;;;;;;;;;;5053353;28;20201;-82
2021/03/29 12:24:22;;;;;;;13.57;10.25;;;;;;;;;;5052146;28;20395;-80
2021/03/29 12:26:47;;;;;;;18.07;11.27;;;;;;;;;;5051929;28;20404;-80
2021/03/29 12:29:17;;;;;;;14.40;8.67;;;;;;;;;;5052466;28;20290;-79
2021/03/29 12:31:44;;;;;;;15.77;8.97;;;;;;;;;;5053079;28;20630;-79
2021/03/29 12:34:09;;;;;;;11.73;9.00;;;;;;;;;;5053184;28;20179;-79
2021/03/29 12:36:42;;;;;;;11.20;7.83;;;;;;;;;;5053180;28;20180;-79
2021/03/29 12:39:17;;;;;;;11.47;8.30;;;;;;;;;;5051609;28;20164;-79
2021/03/29 12:41:45;;;;;;;12.03;8.50;;;;;;;;;;5052509;28;20648;-80
2021/03/29 12:44:16;;;;;;;12.73;9.60;;;;;;;;;;5051499;28;20191;-79
2021/03/29 12:46:43;;;;;;;13.83;9.90;;;;;;;;;;5051448;28;20196;-80
2021/03/29 12:49:11;;;;;;;16.73;10.57;;;;;;;;;;5051571;28;20207;-80
2021/03/29 12:51:37;;;;;;;14.40;10.23;;;;;;;;;;5055772;28;20238;-79
2021/03/29 12:54:09;;;;;;;16.80;10.43;;;;;;;;;;5057116;28;20555;-79
2021/03/29 12:56:35;;;;;;;14.00;8.93;;;;;;;;;;5055478;28;20196;-79
2021/03/29 12:59:02;;;;;;;13.30;9.60;;;;;;;;;;5057203;28;20178;-79
2021/03/29 13:01:28;;;;;;;13.30;9.17;;;;;;;;;;5056897;28;20194;-79
2021/03/29 13:03:56;;;;;;;15.37;10.37;;;;;;;;;;5056899;28;20654;-79
2021/03/29 13:06:27;;;;;;;16.57;11.70;;;;;;;;;;5056811;28;20509;-79
2021/03/29 13:08:59;;;;;;;14.17;10.27;;;;;;;;;;5054074;28;20212;-80
2021/03/29 13:11:31;;;;;;;13.23;9.30;;;;;;;;;;5055213;28;20179;-79
2021/03/29 13:14:01;;;;;;;15.70;9.70;;;;;;;;;;5056605;28;20174;-79
2021/03/29 13:16:27;;;;;;;15.40;11.20;;;;;;;;;;5056507;28;20253;-79
2021/03/29 13:18:52;;;;;;;15.93;11.63;;;;;;;;;;5046705;28;20168;-79
2021/03/29 13:21:19;;;;;;;14.03;10.60;;;;;;;;;;5049198;28;20173;-80
2021/03/29 13:23:45;;;;;;;22.27;11.60;;;;;;;;;;5045135;28;20175;-79
2021/03/29 13:26:15;;;;;;;15.63;10.60;;;;;;;;;;5046849;28;20642;-79
2021/03/29 13:28:41;;;;;;;14.13;10.17;;;;;;;;;;5045861;28;20200;-79
2021/03/29 13:31:07;;;;;;;14.87;10.00;;;;;;;;;;5047120;28;20176;-79
2021/03/29 13:33:32;;;;;;;14.83;9.60;;;;;;;;;;5047746;28;20175;-79
2021/03/29 13:35:57;;;;;;;14.60;9.50;;;;;;;;;;5054553;28;20230;-79
2021/03/29 13:38:23;;;;;;;22.37;14.37;;;;;;;;;;5056024;28;20222;-79
2021/03/29 13:40:48;;;;;;;16.93;12.13;;;;;;;;;;5054862;28;20199;-79
2021/03/29 13:43:15;;;;;;;24.07;15.93;;;;;;;;;;5055030;28;20203;-80
2021/03/29 13:45:40;;;;;;;15.60;11.27;;;;;;;;;;5054006;28;20175;-79
2021/03/29 13:48:06;;;;;;;14.67;10.17;;;;;;;;;;5055853;28;20553;-79
2021/03/29 13:50:32;;;;;;;17.83;11.13;;;;;;;;;;5052829;28;20601;-79
2021/03/29 13:52:58;;;;;;;14.43;9.70;;;;;;;;;;5056238;28;20510;-79
2021/03/29 13:55:24;;;;;;;12.30;9.07;;;;;;;;;;5055647;28;20172;-79
2021/03/29 13:57:50;;;;;;;14.53;10.20;;;;;;;;;;5053066;28;20214;-79
2021/03/29 14:00:15;;;;;;;20.73;12.63;;;;;;;;;;5055468;28;20172;-79
2021/03/29 14:02:46;;;;;;;21.80;15.33;;;;;;;;;;5055357;28;20174;-80
2021/03/29 14:05:11;;;;;;;20.93;14.37;;;;;;;;;;5055458;28;20290;-79
2021/03/29 14:07:38;;;;;;;17.57;12.50;;;;;;;;;;5055754;28;20306;-80
2021/03/29 14:10:04;;;;;;;18.50;11.40;;;;;;;;;;5055261;28;20176;-80
2021/03/29 14:12:30;;;;;;;16.97;11.03;;;;;;;;;;5055498;28;20168;-80
2021/03/29 14:14:55;;;;;;;14.83;10.83;;;;;;;;;;5055236;28;20172;-80
2021/03/29 14:17:21;;;;;;;15.80;10.13;;;;;;;;;;5055537;28;20179;-79
2021/03/29 14:19:46;;;;;;;13.50;10.17;;;;;;;;;;5055114;28;20183;-79
2021/03/29 14:22:12;;;;;;;17.30;12.10;;;;;;;;;;5055591;28;20163;-79
2021/03/29 14:24:37;;;;;;;17.93;13.57;;;;;;;;;;5055097;28;20692;-80
2021/03/29 14:27:02;;;;;;;23.70;16.00;;;;;;;;;;5054916;28;20172;-80
2021/03/29 14:29:28;;;;;;;18.53;13.30;;;;;;;;;;5055267;28;20229;-79